createdAt,value
2022-12-29T00:00:14.854Z,92.81
2022-12-29T00:03:03.078Z,92.86
2022-12-29T00:05:31.325Z,92.94
2022-12-29T00:07:59.415Z,93.21
2022-12-29T00:10:27.540Z,93.30
2022-12-29T00:13:14.458Z,93.18
2022-12-29T00:15:42.635Z,92.91
2022-12-29T00:18:10.770Z,92.66
2022-12-29T00:20:57.836Z,92.52
2022-12-29T00:23:44.660Z,92.54
2022-12-29T00:26:36.461Z,92.57
2022-12-29T00:29:23.283Z,92.65
2022-12-29T00:32:09.923Z,92.82
2022-12-29T00:34:56.738Z,92.93
2022-12-29T00:37:45.215Z,92.79
2022-12-29T00:40:32.432Z,92.65
2022-12-29T00:43:18.980Z,92.65
2022-12-29T00:45:47.298Z,92.68
2022-12-29T00:48:15.435Z,92.80
2022-12-29T00:50:43.531Z,92.84
2022-12-29T00:53:11.845Z,92.79
2022-12-29T00:55:40.077Z,92.84
2022-12-29T00:58:08.352Z,92.82
2022-12-29T01:00:36.519Z,92.81
2022-12-29T01:03:04.845Z,92.72
2022-12-29T01:05:37.947Z,92.78
2022-12-29T01:08:07.821Z,92.95
2022-12-29T01:10:35.993Z,92.95
2022-12-29T01:13:04.589Z,92.94
2022-12-29T01:15:32.671Z,93.14
2022-12-29T01:18:02.222Z,93.32
2022-12-29T01:20:31.911Z,93.30
2022-12-29T01:23:00.007Z,93.19
2022-12-29T01:25:28.180Z,93.03
2022-12-29T01:27:56.359Z,92.88
2022-12-29T01:30:24.358Z,92.90
2022-12-29T01:32:55.029Z,92.88
2022-12-29T01:35:23.364Z,92.93
2022-12-29T01:37:51.797Z,92.91
2022-12-29T01:40:20.529Z,92.87
2022-12-29T01:42:48.761Z,92.74
2022-12-29T01:45:19.234Z,92.78
2022-12-29T01:47:53.173Z,92.76
2022-12-29T01:50:30.403Z,92.93
2022-12-29T01:53:08.945Z,93.02
2022-12-29T01:55:47.891Z,93.06
2022-12-29T01:58:19.358Z,93.05
2022-12-29T02:00:47.978Z,93.03
2022-12-29T02:03:20.014Z,92.85
2022-12-29T02:06:00.145Z,92.68
2022-12-29T02:08:31.067Z,92.61
2022-12-29T02:11:01.935Z,92.45
2022-12-29T02:13:32.259Z,92.33
2022-12-29T02:16:22.235Z,92.23
2022-12-29T02:19:05.973Z,92.12
2022-12-29T02:21:49.323Z,92.24
2022-12-29T02:24:35.132Z,92.28
2022-12-29T02:27:23.318Z,92.25
2022-12-29T02:30:19.314Z,92.20
2022-12-29T02:33:16.133Z,92.07
2022-12-29T02:35:57.111Z,91.99
2022-12-29T02:38:37.456Z,91.87
2022-12-29T02:41:49.193Z,91.65
2022-12-29T02:45:11.508Z,91.46
2022-12-29T02:47:42.791Z,91.47
2022-12-29T02:50:34.958Z,91.42
2022-12-29T02:53:08.272Z,91.49
2022-12-29T02:55:36.665Z,91.66
2022-12-29T02:58:10.190Z,91.97
2022-12-29T03:00:57.352Z,91.97
2022-12-29T03:03:37.517Z,92.00
2022-12-29T03:06:36.863Z,92.13
2022-12-29T03:10:03.189Z,92.18
2022-12-29T03:13:21.685Z,92.09
2022-12-29T03:16:07.391Z,91.97
2022-12-29T03:18:46.491Z,92.22
2022-12-29T03:21:48.465Z,92.58
2022-12-29T03:24:23.331Z,92.58
2022-12-29T03:26:57.177Z,92.61
2022-12-29T03:29:27.834Z,92.64
2022-12-29T03:31:57.792Z,92.58
2022-12-29T03:34:27.149Z,92.61
2022-12-29T03:37:08.040Z,92.64
2022-12-29T03:39:36.857Z,92.52
2022-12-29T03:42:10.671Z,92.46
2022-12-29T03:44:42.408Z,92.37
2022-12-29T03:47:15.467Z,92.27
2022-12-29T03:49:44.221Z,92.24
2022-12-29T03:52:13.385Z,92.02
2022-12-29T03:54:44.597Z,92.23
2022-12-29T03:57:13.237Z,92.46
2022-12-29T03:59:51.934Z,92.45
2022-12-29T04:02:20.481Z,92.57
2022-12-29T04:04:48.991Z,92.83
2022-12-29T04:07:17.201Z,92.91
2022-12-29T04:09:46.482Z,93.00
2022-12-29T04:12:20.519Z,92.91
2022-12-29T04:14:49.027Z,93.03
2022-12-29T04:17:17.232Z,93.05
2022-12-29T04:19:47.792Z,92.94
2022-12-29T04:22:15.876Z,92.81
2022-12-29T04:24:44.173Z,92.75
2022-12-29T04:27:13.392Z,92.69
2022-12-29T04:29:54.439Z,92.23
2022-12-29T04:32:34.833Z,92.07
2022-12-29T04:35:03.236Z,92.09
2022-12-29T04:37:31.429Z,92.12
2022-12-29T04:39:59.609Z,91.93
2022-12-29T04:42:27.782Z,91.86
2022-12-29T04:44:56.099Z,91.99
2022-12-29T04:47:37.786Z,91.88
2022-12-29T04:50:29.786Z,91.84
2022-12-29T04:53:19.293Z,91.60
2022-12-29T04:55:52.599Z,91.57
2022-12-29T04:58:23.063Z,91.60
2022-12-29T05:00:52.992Z,91.53
2022-12-29T05:03:24.328Z,91.44
2022-12-29T05:05:58.394Z,91.69
2022-12-29T05:08:28.588Z,91.96
2022-12-29T05:10:59.573Z,91.84
2022-12-29T05:13:28.311Z,91.65
2022-12-29T05:15:56.559Z,91.52
2022-12-29T05:18:25.575Z,91.61
2022-12-29T05:20:53.883Z,91.81
2022-12-29T05:23:24.000Z,91.84
2022-12-29T05:25:57.907Z,91.79
2022-12-29T05:28:32.943Z,91.90
2022-12-29T05:31:11.336Z,92.02
2022-12-29T05:33:39.623Z,92.15
2022-12-29T05:36:09.365Z,92.19
2022-12-29T05:38:39.821Z,92.05
2022-12-29T05:41:08.534Z,91.93
2022-12-29T05:43:55.210Z,91.82
2022-12-29T05:46:52.521Z,91.66
2022-12-29T05:49:32.227Z,91.56
2022-12-29T05:52:07.768Z,91.85
2022-12-29T05:54:36.156Z,92.02
2022-12-29T05:57:11.110Z,92.15
2022-12-29T05:59:40.362Z,92.26
2022-12-29T06:02:08.681Z,92.13
2022-12-29T06:04:36.938Z,92.12
2022-12-29T06:07:05.115Z,92.27
2022-12-29T06:09:42.230Z,92.10
2022-12-29T06:12:11.025Z,92.20
2022-12-29T06:14:41.027Z,92.18
2022-12-29T06:17:10.742Z,92.05
2022-12-29T06:19:39.484Z,91.88
2022-12-29T06:22:09.184Z,91.77
2022-12-29T06:24:37.686Z,91.86
2022-12-29T06:27:06.058Z,92.10
2022-12-29T06:29:34.290Z,92.39
2022-12-29T06:32:03.013Z,92.45
2022-12-29T06:34:33.548Z,92.40
2022-12-29T06:37:03.088Z,92.45
2022-12-29T06:39:31.251Z,92.38
2022-12-29T06:42:06.366Z,92.28
2022-12-29T06:45:04.243Z,92.20
2022-12-29T06:48:07.783Z,92.15
2022-12-29T06:50:39.612Z,92.07
2022-12-29T06:53:15.674Z,91.87
2022-12-29T06:55:44.038Z,91.60
2022-12-29T06:58:12.371Z,91.57
2022-12-29T07:00:40.699Z,91.45
2022-12-29T07:03:09.061Z,90.93
2022-12-29T07:05:37.411Z,90.72
2022-12-29T07:08:06.068Z,90.74
2022-12-29T07:10:34.259Z,91.01
2022-12-29T07:13:03.288Z,91.04
2022-12-29T07:15:32.286Z,90.85
2022-12-29T07:18:00.593Z,90.45
2022-12-29T07:20:29.159Z,90.20
2022-12-29T07:22:57.366Z,89.75
2022-12-29T07:25:25.564Z,89.57
2022-12-29T07:27:54.165Z,89.32
2022-12-29T07:30:22.342Z,88.91
2022-12-29T07:32:50.460Z,88.00
2022-12-29T07:35:18.752Z,86.55
2022-12-29T07:37:47.070Z,85.84
2022-12-29T07:40:15.464Z,86.08
2022-12-29T07:42:43.633Z,85.84
2022-12-29T07:45:12.066Z,85.54
2022-12-29T07:47:51.509Z,85.10
2022-12-29T07:50:19.714Z,84.47
2022-12-29T07:52:49.016Z,82.10
2022-12-29T07:55:17.751Z,81.43
2022-12-29T07:57:45.926Z,81.55
2022-12-29T08:00:14.693Z,81.08
2022-12-29T08:02:42.952Z,81.97
2022-12-29T08:05:11.372Z,82.68
2022-12-29T08:07:39.536Z,82.89
2022-12-29T08:10:08.210Z,82.86
2022-12-29T08:12:36.264Z,82.39
2022-12-29T08:15:04.906Z,82.42
2022-12-29T08:17:33.699Z,81.83
2022-12-29T08:20:02.038Z,81.63
2022-12-29T08:22:30.177Z,80.89
2022-12-29T08:24:58.283Z,80.31
2022-12-29T08:27:27.217Z,79.61
2022-12-29T08:29:55.360Z,78.39
2022-12-29T08:32:32.521Z,77.98
2022-12-29T08:35:03.854Z,77.90
2022-12-29T08:37:33.919Z,77.83
2022-12-29T08:40:04.934Z,77.99
2022-12-29T08:42:34.006Z,77.60
2022-12-29T08:45:02.464Z,76.49
2022-12-29T08:47:30.719Z,77.16
2022-12-29T08:49:58.967Z,78.00
2022-12-29T08:52:27.483Z,78.08
2022-12-29T08:54:55.593Z,78.16
2022-12-29T08:57:23.832Z,77.76
2022-12-29T09:00:07.124Z,76.83
2022-12-29T09:02:35.457Z,76.49
2022-12-29T09:05:04.169Z,76.02
2022-12-29T09:07:32.494Z,75.77
2022-12-29T09:10:00.556Z,74.50
2022-12-29T09:12:34.486Z,73.13
2022-12-29T09:15:06.096Z,73.63
2022-12-29T09:17:44.511Z,74.22
2022-12-29T09:20:15.472Z,74.64
2022-12-29T09:22:45.891Z,73.88
2022-12-29T09:25:16.932Z,73.56
2022-12-29T09:27:45.074Z,73.82
2022-12-29T09:30:15.477Z,73.46
2022-12-29T09:32:45.424Z,72.83
2022-12-29T09:35:40.867Z,72.07
2022-12-29T09:38:09.179Z,71.82
2022-12-29T09:40:38.763Z,70.67
2022-12-29T09:43:16.047Z,70.67
2022-12-29T09:45:54.049Z,70.38
2022-12-29T09:48:28.618Z,69.38
2022-12-29T09:51:02.568Z,69.29
2022-12-29T09:53:38.769Z,69.69
2022-12-29T09:56:16.428Z,67.99
2022-12-29T09:59:03.839Z,67.26
2022-12-29T10:01:47.881Z,64.72
2022-12-29T10:04:16.243Z,63.73
2022-12-29T10:07:30.780Z,63.85
2022-12-29T10:10:27.315Z,63.15
2022-12-29T10:13:27.591Z,61.98
2022-12-29T10:16:10.179Z,62.35
2022-12-29T10:19:06.630Z,62.06
2022-12-29T10:21:51.143Z,61.04
2022-12-29T10:24:22.794Z,60.69
2022-12-29T10:26:53.229Z,62.10
2022-12-29T10:29:32.235Z,62.52
2022-12-29T10:32:05.860Z,61.55
2022-12-29T10:35:04.198Z,61.25
2022-12-29T10:37:44.233Z,59.67
2022-12-29T10:40:20.805Z,58.85
2022-12-29T10:42:54.565Z,59.83
2022-12-29T10:45:26.754Z,58.35
2022-12-29T10:48:05.139Z,57.83
2022-12-29T10:50:34.106Z,57.68
2022-12-29T10:53:06.672Z,58.18
2022-12-29T10:55:40.625Z,57.11
2022-12-29T10:58:13.556Z,56.46
2022-12-29T11:00:44.006Z,56.87
2022-12-29T11:03:37.544Z,55.98
2022-12-29T11:06:30.533Z,55.75
2022-12-29T11:09:18.870Z,54.05
2022-12-29T11:11:48.261Z,53.44
2022-12-29T11:14:26.935Z,55.38
2022-12-29T11:17:00.667Z,54.52
2022-12-29T11:19:39.178Z,53.53
2022-12-29T11:22:29.231Z,53.45
2022-12-29T11:25:12.288Z,53.94
2022-12-29T11:28:02.338Z,52.91
2022-12-29T11:30:32.876Z,54.04
2022-12-29T11:33:05.284Z,54.15
2022-12-29T11:35:40.777Z,53.61
2022-12-29T11:38:26.254Z,52.90
2022-12-29T11:40:54.949Z,52.57
2022-12-29T11:43:38.869Z,52.24
2022-12-29T11:46:09.607Z,52.34
2022-12-29T11:48:46.427Z,52.92
2022-12-29T11:51:26.455Z,52.25
2022-12-29T11:54:03.513Z,52.82
2022-12-29T11:56:42.328Z,53.70
2022-12-29T11:59:32.155Z,53.59
2022-12-29T12:02:12.458Z,54.11
2022-12-29T12:04:41.294Z,54.19
2022-12-29T12:07:25.935Z,54.40
2022-12-29T12:10:06.496Z,53.79
2022-12-29T12:12:56.120Z,53.99
2022-12-29T12:15:45.340Z,54.37
2022-12-29T12:18:32.855Z,54.12
2022-12-29T12:21:25.085Z,54.18
2022-12-29T12:27:46.208Z,54.89
2022-12-29T12:30:21.840Z,55.17
2022-12-29T12:33:00.143Z,55.13
2022-12-29T12:36:06.412Z,55.53
2022-12-29T12:39:01.242Z,56.01
2022-12-29T12:42:01.230Z,56.44
2022-12-29T12:44:48.971Z,56.33
2022-12-29T12:47:36.133Z,56.27
2022-12-29T12:50:26.566Z,56.47
2022-12-29T12:52:54.891Z,56.46
2022-12-29T12:55:59.623Z,56.24
2022-12-29T12:59:02.997Z,56.56
2022-12-29T13:01:56.499Z,56.07
2022-12-29T13:07:45.152Z,55.02
2022-12-29T13:10:28.399Z,55.29
2022-12-29T13:13:11.716Z,55.25
2022-12-29T13:16:12.396Z,54.91
2022-12-29T13:18:55.125Z,54.73
2022-12-29T13:22:06.630Z,55.20
2022-12-29T13:25:00.172Z,55.04
2022-12-29T13:27:37.762Z,54.79
2022-12-29T13:30:17.096Z,54.32
2022-12-29T13:33:00.637Z,54.19
2022-12-29T13:35:35.976Z,54.53
2022-12-29T13:38:13.326Z,54.68
2022-12-29T13:40:47.063Z,54.87
2022-12-29T13:43:17.451Z,55.05
2022-12-29T13:45:51.911Z,55.24
2022-12-29T13:48:53.684Z,55.27
2022-12-29T13:51:28.131Z,55.41
2022-12-29T13:54:20.602Z,55.42
2022-12-29T13:57:09.304Z,55.65
2022-12-29T13:59:41.843Z,55.72
2022-12-29T14:02:22.385Z,56.15
2022-12-29T14:05:02.465Z,56.64
2022-12-29T14:07:38.611Z,57.26
2022-12-29T14:10:07.524Z,57.90
2022-12-29T14:12:44.465Z,58.40
2022-12-29T14:15:12.617Z,58.94
2022-12-29T14:18:21.552Z,59.41
2022-12-29T14:20:54.569Z,60.01
2022-12-29T14:23:50.951Z,60.53
2022-12-29T14:26:31.174Z,60.94
2022-12-29T14:29:18.604Z,61.44
2022-12-29T14:31:46.982Z,61.83
2022-12-29T14:34:15.559Z,62.15
2022-12-29T14:36:55.696Z,62.63
2022-12-29T14:39:46.117Z,63.04
2022-12-29T14:42:20.552Z,63.65
2022-12-29T14:45:22.127Z,63.97
2022-12-29T14:51:40.435Z,65.45
2022-12-29T14:54:42.087Z,66.05
2022-12-29T14:57:23.617Z,66.67
2022-12-29T15:00:02.131Z,67.17
2022-12-29T15:02:41.435Z,67.40
2022-12-29T15:05:32.299Z,67.76
2022-12-29T15:08:02.711Z,67.76
2022-12-29T15:10:47.019Z,68.04
2022-12-29T15:13:20.839Z,68.37
2022-12-29T15:17:06.750Z,68.71
2022-12-29T15:21:21.224Z,69.10
2022-12-29T15:28:14.634Z,69.86
2022-12-29T15:31:12.403Z,70.06
2022-12-29T15:34:12.038Z,70.28
2022-12-29T15:36:59.645Z,70.64
2022-12-29T15:39:32.354Z,70.73
2022-12-29T15:42:30.799Z,71.01
2022-12-29T15:45:15.986Z,71.19
2022-12-29T15:47:50.727Z,71.50
2022-12-29T15:50:32.412Z,71.80
2022-12-29T15:53:29.591Z,72.46
2022-12-29T15:56:11.468Z,72.62
2022-12-29T15:58:51.582Z,73.37
2022-12-29T16:01:31.988Z,73.69
2022-12-29T16:04:04.347Z,73.60
2022-12-29T16:06:58.201Z,73.76
2022-12-29T16:09:49.818Z,74.12
2022-12-29T16:12:36.121Z,74.45
2022-12-29T16:15:26.316Z,74.27
2022-12-29T16:18:00.913Z,74.25
2022-12-29T16:20:43.797Z,74.35
2022-12-29T16:23:21.949Z,74.47
2022-12-29T16:26:03.547Z,74.85
2022-12-29T16:29:05.839Z,74.99
2022-12-29T16:32:06.714Z,74.90
2022-12-29T16:38:31.964Z,74.98
2022-12-29T16:41:34.002Z,76.17
2022-12-29T16:44:32.972Z,76.27
2022-12-29T16:48:26.040Z,75.88
2022-12-29T16:51:13.230Z,75.59
2022-12-29T16:54:12.977Z,75.38
2022-12-29T16:58:23.402Z,75.37
2022-12-29T17:04:23.082Z,75.20
2022-12-29T17:06:51.562Z,75.27
2022-12-29T17:09:30.295Z,75.21
2022-12-29T17:12:22.114Z,75.24
2022-12-29T17:19:14.580Z,75.42
2022-12-29T17:20:40.398Z,75.27
2022-12-29T17:23:38.027Z,75.23
2022-12-29T17:26:08.812Z,75.75
2022-12-29T17:28:42.430Z,75.90
2022-12-29T17:31:18.172Z,75.78
2022-12-29T17:34:23.196Z,75.74
2022-12-29T17:37:21.214Z,75.75
2022-12-29T17:40:32.690Z,76.08
2022-12-29T17:51:10.237Z,76.07
2022-12-29T17:53:39.700Z,75.91
2022-12-29T17:56:09.597Z,75.77
2022-12-29T18:02:04.302Z,75.64
2022-12-29T18:04:32.471Z,75.68
2022-12-29T18:07:01.930Z,75.79
2022-12-29T18:09:30.551Z,76.00
2022-12-29T18:11:58.881Z,76.10
2022-12-29T18:14:27.472Z,76.24
2022-12-29T18:16:56.049Z,76.20
2022-12-29T18:19:32.413Z,76.09
2022-12-29T18:22:05.408Z,76.20
2022-12-29T18:24:33.765Z,76.26
2022-12-29T18:27:12.083Z,76.33
2022-12-29T18:29:40.785Z,76.50
2022-12-29T18:32:16.330Z,76.51
2022-12-29T18:34:44.974Z,76.51
2022-12-29T18:37:13.234Z,76.62
2022-12-29T18:39:41.614Z,76.98
2022-12-29T18:42:17.663Z,76.87
2022-12-29T18:44:47.703Z,76.74
2022-12-29T18:47:16.937Z,76.80
2022-12-29T18:49:45.507Z,76.75
2022-12-29T18:52:13.985Z,76.75
2022-12-29T18:54:42.311Z,76.77
2022-12-29T18:57:10.554Z,76.86
2022-12-29T18:59:39.472Z,76.87
2022-12-29T19:02:17.801Z,76.83
2022-12-29T19:04:50.119Z,76.84
2022-12-29T19:07:21.428Z,76.82
2022-12-29T19:09:49.633Z,76.95
2022-12-29T19:12:17.724Z,77.06
2022-12-29T19:14:46.203Z,77.04
2022-12-29T19:17:14.771Z,76.97
2022-12-29T19:19:43.272Z,77.13
2022-12-29T19:22:11.567Z,77.22
2022-12-29T19:24:39.625Z,77.33
2022-12-29T19:27:07.690Z,77.26
2022-12-29T19:29:36.048Z,77.20
2022-12-29T19:32:05.334Z,77.34
2022-12-29T19:34:33.849Z,77.44
2022-12-29T19:37:02.017Z,77.32
2022-12-29T19:39:30.181Z,77.18
2022-12-29T19:42:03.502Z,77.33
2022-12-29T19:44:33.535Z,77.29
2022-12-29T19:47:01.673Z,77.44
2022-12-29T19:49:30.378Z,77.55
2022-12-29T19:51:58.903Z,77.55
2022-12-29T19:54:27.047Z,77.47
2022-12-29T19:56:55.366Z,77.50
2022-12-29T19:59:23.528Z,77.61
2022-12-29T20:01:51.993Z,77.74
2022-12-29T20:04:20.679Z,77.63
2022-12-29T20:06:48.873Z,77.48
2022-12-29T20:09:17.023Z,77.51
2022-12-29T20:11:45.049Z,77.54
2022-12-29T20:14:13.107Z,78.12
2022-12-29T20:17:08.863Z,78.35
2022-12-29T20:19:30.966Z,78.85
2022-12-29T20:22:00.954Z,79.10
2022-12-29T20:24:30.155Z,79.15
2022-12-29T20:26:59.459Z,79.16
2022-12-29T20:29:27.865Z,79.16
2022-12-29T20:31:56.336Z,79.22
2022-12-29T20:34:25.341Z,79.39
2022-12-29T20:36:53.543Z,79.56
2022-12-29T20:39:21.729Z,79.82
2022-12-29T20:41:50.101Z,79.94
2022-12-29T20:44:18.317Z,80.00
2022-12-29T20:46:46.484Z,79.85
2022-12-29T20:49:14.654Z,79.93
2022-12-29T20:52:06.328Z,80.06
2022-12-29T20:54:38.687Z,80.13
2022-12-29T20:57:08.274Z,80.18
2022-12-29T20:59:37.119Z,80.22
2022-12-29T21:02:06.032Z,80.30
2022-12-29T21:05:05.111Z,80.27
2022-12-29T21:07:22.775Z,80.53
2022-12-29T21:09:51.093Z,80.51
2022-12-29T21:12:19.399Z,80.42
2022-12-29T21:14:47.837Z,80.56
2022-12-29T21:17:19.487Z,80.59
2022-12-29T21:19:47.743Z,80.81
2022-12-29T21:22:16.111Z,80.93
2022-12-29T21:24:44.286Z,81.18
2022-12-29T21:27:14.175Z,81.00
2022-12-29T21:29:42.710Z,80.89
2022-12-29T21:32:13.482Z,80.81
2022-12-29T21:34:41.863Z,80.71
2022-12-29T21:37:10.167Z,80.64
2022-12-29T21:39:38.534Z,80.66
2022-12-29T21:42:07.242Z,80.63
2022-12-29T21:44:55.874Z,80.67
2022-12-29T21:47:24.601Z,80.59
2022-12-29T21:49:52.885Z,80.78
2022-12-29T21:52:21.686Z,80.78
2022-12-29T21:55:02.099Z,80.83
2022-12-29T21:57:48.931Z,80.85
2022-12-29T22:00:35.996Z,80.68
2022-12-29T22:03:25.140Z,80.48
2022-12-29T22:06:12.961Z,80.37
2022-12-29T22:09:01.981Z,80.24
2022-12-29T22:11:48.628Z,80.18
2022-12-29T22:14:17.100Z,80.08
2022-12-29T22:16:45.401Z,80.03
2022-12-29T22:19:14.601Z,80.05
2022-12-29T22:21:42.853Z,79.93
2022-12-29T22:24:11.231Z,80.05
2022-12-29T22:26:39.456Z,79.97
2022-12-29T22:29:07.951Z,80.22
2022-12-29T22:31:36.791Z,80.42
2022-12-29T22:34:05.423Z,80.49
2022-12-29T22:36:33.894Z,80.48
2022-12-29T22:39:02.341Z,80.38
2022-12-29T22:41:30.797Z,80.32
2022-12-29T22:43:59.165Z,80.32
2022-12-29T22:46:27.551Z,80.57
2022-12-29T22:48:58.119Z,80.80
2022-12-29T22:51:30.075Z,80.97
2022-12-29T22:53:58.555Z,81.09
2022-12-29T22:56:27.020Z,81.49
2022-12-29T22:58:55.598Z,81.63
2022-12-29T23:01:23.997Z,81.66
2022-12-29T23:03:52.439Z,81.88
2022-12-29T23:06:20.807Z,81.92
2022-12-29T23:08:49.205Z,81.88
2022-12-29T23:11:17.585Z,81.93
2022-12-29T23:13:46.319Z,82.10
2022-12-29T23:16:16.618Z,82.01
2022-12-29T23:18:47.297Z,82.05
2022-12-29T23:21:18.103Z,82.28
2022-12-29T23:23:56.396Z,82.34
2022-12-29T23:26:37.308Z,82.34
2022-12-29T23:29:09.273Z,82.28
2022-12-29T23:31:38.428Z,82.51
2022-12-29T23:34:08.443Z,82.57
2022-12-29T23:36:36.932Z,82.44
2022-12-29T23:39:06.315Z,82.42
2022-12-29T23:41:35.338Z,82.46
2022-12-29T23:44:03.792Z,82.46
2022-12-29T23:46:32.133Z,82.46
2022-12-29T23:49:00.554Z,82.50
2022-12-29T23:51:28.950Z,82.53
2022-12-29T23:53:57.385Z,82.74
2022-12-29T23:56:25.747Z,82.73
2022-12-29T23:58:54.433Z,82.66
